Zigzag, Oregon
Current Conditions -  °F | °C
As of 9:39 PM on Thursday 27 Nov 2014 (Local Time) from K4S2 Reporting Station
Broken Clouds Broken Clouds  
Wind Chill: 50°   Ceiling: 4800
Heat Index: 50°   Visibility: 10mi
Dew Point: 48°   Wind: 0mph
Humidity: 94%   Direction: NA
Pressure: 29.84"   Gusts: NA
Location:  45.3555°N, 121.853°W
Report Text: K4S2 280539Z AUTO 00000KT 10SM SCT042 BKN048 BKN050 10/09 A2984 RMK AO2 SLP119 T01000090
Loading
Personal Weather Stations






























Interactive Weather Map New forecast layout! Learn more

10-Day Weather Forecast

Advertisements
Track Severe Weather on mobile